sensor_id;sensor_type;location;lat;lon;timestamp;pressure;altitude;pressure_sealevel;temperature;humidity
53514;BME280;39768;54.148;12.174;2023-06-22T00:03:58;101865.16;;;15.17;nan
53514;BME280;39768;54.148;12.174;2023-06-22T00:08:02;101859.03;;;15.12;nan
53514;BME280;39768;54.148;12.174;2023-06-22T00:12:05;101858.78;;;14.93;nan
53514;BME280;39768;54.148;12.174;2023-06-22T00:16:06;101865.44;;;14.83;nan
53514;BME280;39768;54.148;12.174;2023-06-22T00:20:08;101858.84;;;14.65;nan
53514;BME280;39768;54.148;12.174;2023-06-22T00:24:11;101864.72;;;14.78;nan
53514;BME280;39768;54.148;12.174;2023-06-22T00:28:13;101871.84;;;14.24;nan
53514;BME280;39768;54.148;12.174;2023-06-22T00:32:15;101863.56;;;13.72;nan
53514;BME280;39768;54.148;12.174;2023-06-22T00:36:17;101856.50;;;13.37;nan
53514;BME280;39768;54.148;12.174;2023-06-22T00:40:20;101862.41;;;13.18;nan
53514;BME280;39768;54.148;12.174;2023-06-22T00:44:23;101864.53;;;13.06;nan
53514;BME280;39768;54.148;12.174;2023-06-22T00:48:25;101859.31;;;13.32;nan
53514;BME280;39768;54.148;12.174;2023-06-22T00:52:27;101860.69;;;13.47;nan
53514;BME280;39768;54.148;12.174;2023-06-22T00:56:32;101859.53;;;13.55;nan
53514;BME280;39768;54.148;12.174;2023-06-22T01:00:37;101861.31;;;13.56;nan
53514;BME280;39768;54.148;12.174;2023-06-22T01:04:39;101860.34;;;13.90;nan
53514;BME280;39768;54.148;12.174;2023-06-22T01:08:49;101858.44;;;13.93;nan
53514;BME280;39768;54.148;12.174;2023-06-22T01:13:01;101863.56;;;14.01;nan
53514;BME280;39768;54.148;12.174;2023-06-22T01:17:05;101871.66;;;14.01;nan
53514;BME280;39768;54.148;12.174;2023-06-22T01:21:12;101863.50;;;14.04;nan
53514;BME280;39768;54.148;12.174;2023-06-22T01:25:20;101861.72;;;13.74;nan
53514;BME280;39768;54.148;12.174;2023-06-22T01:29:26;101870.97;;;12.98;nan
53514;BME280;39768;54.148;12.174;2023-06-22T01:33:32;101861.66;;;12.79;nan
53514;BME280;39768;54.148;12.174;2023-06-22T01:37:36;101866.19;;;13.42;nan
53514;BME280;39768;54.148;12.174;2023-06-22T01:41:40;101863.41;;;13.78;nan
53514;BME280;39768;54.148;12.174;2023-06-22T01:45:43;101869.34;;;13.89;nan
53514;BME280;39768;54.148;12.174;2023-06-22T01:49:47;101871.59;;;14.02;nan
53514;BME280;39768;54.148;12.174;2023-06-22T01:53:49;101868.25;;;13.96;nan
53514;BME280;39768;54.148;12.174;2023-06-22T01:57:53;101874.69;;;13.90;nan
53514;BME280;39768;54.148;12.174;2023-06-22T02:01:59;101877.88;;;13.74;nan
53514;BME280;39768;54.148;12.174;2023-06-22T02:06:05;101881.38;;;13.45;nan
53514;BME280;39768;54.148;12.174;2023-06-22T02:10:08;101884.13;;;13.42;nan
53514;BME280;39768;54.148;12.174;2023-06-22T02:14:13;101880.00;;;13.62;nan
53514;BME280;39768;54.148;12.174;2023-06-22T02:18:17;101879.78;;;13.99;nan
53514;BME280;39768;54.148;12.174;2023-06-22T02:22:18;101883.03;;;13.81;nan
53514;BME280;39768;54.148;12.174;2023-06-22T02:26:20;101885.53;;;13.87;nan
53514;BME280;39768;54.148;12.174;2023-06-22T02:30:22;101876.78;;;14.10;nan
53514;BME280;39768;54.148;12.174;2023-06-22T02:34:23;101873.84;;;13.88;nan
53514;BME280;39768;54.148;12.174;2023-06-22T02:38:25;101876.75;;;13.50;nan
53514;BME280;39768;54.148;12.174;2023-06-22T02:42:27;101880.56;;;13.41;nan
53514;BME280;39768;54.148;12.174;2023-06-22T02:46:29;101877.97;;;13.06;nan
53514;BME280;39768;54.148;12.174;2023-06-22T02:50:31;101878.13;;;13.32;nan
53514;BME280;39768;54.148;12.174;2023-06-22T02:54:33;101890.16;;;13.51;nan
53514;BME280;39768;54.148;12.174;2023-06-22T02:58:35;101884.91;;;13.14;nan
53514;BME280;39768;54.148;12.174;2023-06-22T03:02:46;101885.22;;;13.36;nan
53514;BME280;39768;54.148;12.174;2023-06-22T03:06:49;101894.69;;;13.49;nan
53514;BME280;39768;54.148;12.174;2023-06-22T03:10:52;101892.50;;;13.31;nan
53514;BME280;39768;54.148;12.174;2023-06-22T03:14:54;101906.09;;;13.90;nan
53514;BME280;39768;54.148;12.174;2023-06-22T03:18:56;101900.06;;;14.11;nan
53514;BME280;39768;54.148;12.174;2023-06-22T03:22:57;101914.22;;;14.46;nan
53514;BME280;39768;54.148;12.174;2023-06-22T03:26:59;101918.53;;;14.53;nan
53514;BME280;39768;54.148;12.174;2023-06-22T03:31:03;101906.81;;;13.65;nan
53514;BME280;39768;54.148;12.174;2023-06-22T03:35:07;101913.13;;;12.96;nan
53514;BME280;39768;54.148;12.174;2023-06-22T03:39:11;101905.91;;;12.65;nan
53514;BME280;39768;54.148;12.174;2023-06-22T03:43:13;101897.72;;;12.31;nan
53514;BME280;39768;54.148;12.174;2023-06-22T03:47:14;101907.88;;;12.55;nan
53514;BME280;39768;54.148;12.174;2023-06-22T03:51:16;101906.41;;;13.14;nan
53514;BME280;39768;54.148;12.174;2023-06-22T03:55:19;101910.38;;;13.00;nan
53514;BME280;39768;54.148;12.174;2023-06-22T03:59:21;101915.69;;;13.35;nan
53514;BME280;39768;54.148;12.174;2023-06-22T04:03:23;101928.50;;;13.90;nan
53514;BME280;39768;54.148;12.174;2023-06-22T04:07:25;101930.13;;;13.96;nan
53514;BME280;39768;54.148;12.174;2023-06-22T04:11:27;101924.53;;;14.31;nan
53514;BME280;39768;54.148;12.174;2023-06-22T04:15:28;101940.13;;;14.79;nan
53514;BME280;39768;54.148;12.174;2023-06-22T04:19:30;101935.94;;;14.97;nan
53514;BME280;39768;54.148;12.174;2023-06-22T04:23:32;101938.84;;;14.63;nan
53514;BME280;39768;54.148;12.174;2023-06-22T04:27:34;101938.28;;;14.80;nan
53514;BME280;39768;54.148;12.174;2023-06-22T04:31:42;101940.84;;;15.11;nan
53514;BME280;39768;54.148;12.174;2023-06-22T04:35:46;101935.97;;;16.21;nan
53514;BME280;39768;54.148;12.174;2023-06-22T04:39:48;101931.31;;;18.51;nan
53514;BME280;39768;54.148;12.174;2023-06-22T04:43:50;101947.09;;;18.79;nan
53514;BME280;39768;54.148;12.174;2023-06-22T04:47:55;101951.31;;;19.38;nan
53514;BME280;39768;54.148;12.174;2023-06-22T04:51:57;101942.19;;;20.55;nan
53514;BME280;39768;54.148;12.174;2023-06-22T04:55:59;101944.38;;;21.11;nan
53514;BME280;39768;54.148;12.174;2023-06-22T05:00:01;101936.41;;;21.38;nan
53514;BME280;39768;54.148;12.174;2023-06-22T05:04:15;101937.13;;;21.26;nan
53514;BME280;39768;54.148;12.174;2023-06-22T05:08:17;101941.59;;;20.50;nan
53514;BME280;39768;54.148;12.174;2023-06-22T05:12:19;101933.72;;;19.79;nan
53514;BME280;39768;54.148;12.174;2023-06-22T05:16:21;101933.41;;;18.99;nan
53514;BME280;39768;54.148;12.174;2023-06-22T05:20:26;101940.00;;;18.94;nan
53514;BME280;39768;54.148;12.174;2023-06-22T05:24:28;101939.34;;;19.76;nan
53514;BME280;39768;54.148;12.174;2023-06-22T05:28:29;101932.81;;;19.96;nan
53514;BME280;39768;54.148;12.174;2023-06-22T05:32:31;101929.94;;;20.63;nan
53514;BME280;39768;54.148;12.174;2023-06-22T05:36:32;101925.34;;;20.33;nan
53514;BME280;39768;54.148;12.174;2023-06-22T05:40:34;101939.25;;;20.11;nan
53514;BME280;39768;54.148;12.174;2023-06-22T05:44:36;101950.66;;;20.02;nan
53514;BME280;39768;54.148;12.174;2023-06-22T05:48:38;101949.38;;;19.91;nan
53514;BME280;39768;54.148;12.174;2023-06-22T05:52:40;101952.47;;;20.01;nan
53514;BME280;39768;54.148;12.174;2023-06-22T05:56:42;101958.56;;;19.89;nan
53514;BME280;39768;54.148;12.174;2023-06-22T06:00:43;101955.91;;;20.05;nan
53514;BME280;39768;54.148;12.174;2023-06-22T06:04:45;101961.09;;;20.25;nan
53514;BME280;39768;54.148;12.174;2023-06-22T06:08:47;101961.84;;;20.44;nan
53514;BME280;39768;54.148;12.174;2023-06-22T06:12:48;101958.78;;;20.50;nan
53514;BME280;39768;54.148;12.174;2023-06-22T06:16:50;101966.19;;;20.15;nan
53514;BME280;39768;54.148;12.174;2023-06-22T06:20:51;101963.59;;;20.45;nan
53514;BME280;39768;54.148;12.174;2023-06-22T06:24:53;101966.84;;;20.36;nan
53514;BME280;39768;54.148;12.174;2023-06-22T06:28:59;101962.81;;;20.59;nan
53514;BME280;39768;54.148;12.174;2023-06-22T06:33:01;101961.06;;;20.74;nan
53514;BME280;39768;54.148;12.174;2023-06-22T06:37:03;101965.03;;;21.14;nan
53514;BME280;39768;54.148;12.174;2023-06-22T06:41:04;101969.94;;;20.61;nan
53514;BME280;39768;54.148;12.174;2023-06-22T06:45:07;101965.75;;;21.17;nan
53514;BME280;39768;54.148;12.174;2023-06-22T06:49:08;101963.28;;;21.13;nan
53514;BME280;39768;54.148;12.174;2023-06-22T06:53:11;101963.03;;;21.33;nan
53514;BME280;39768;54.148;12.174;2023-06-22T06:57:12;101964.38;;;21.56;nan
53514;BME280;39768;54.148;12.174;2023-06-22T07:01:14;101957.09;;;21.71;nan
53514;BME280;39768;54.148;12.174;2023-06-22T07:05:16;101961.88;;;21.21;nan
53514;BME280;39768;54.148;12.174;2023-06-22T07:09:18;101969.75;;;21.42;nan
53514;BME280;39768;54.148;12.174;2023-06-22T07:13:20;101958.25;;;21.66;nan
53514;BME280;39768;54.148;12.174;2023-06-22T07:17:21;101953.41;;;21.86;nan
53514;BME280;39768;54.148;12.174;2023-06-22T07:21:23;101961.41;;;21.45;nan
53514;BME280;39768;54.148;12.174;2023-06-22T07:25:24;101950.81;;;21.24;nan
53514;BME280;39768;54.148;12.174;2023-06-22T07:29:26;101946.31;;;21.39;nan
53514;BME280;39768;54.148;12.174;2023-06-22T07:33:28;101962.59;;;21.25;nan
53514;BME280;39768;54.148;12.174;2023-06-22T07:37:30;101961.72;;;21.24;nan
53514;BME280;39768;54.148;12.174;2023-06-22T07:41:32;101960.34;;;22.06;nan
53514;BME280;39768;54.148;12.174;2023-06-22T07:45:33;101963.84;;;21.93;nan
53514;BME280;39768;54.148;12.174;2023-06-22T07:49:36;101968.09;;;21.83;nan
53514;BME280;39768;54.148;12.174;2023-06-22T07:53:39;101960.97;;;22.52;nan
53514;BME280;39768;54.148;12.174;2023-06-22T07:57:41;101962.25;;;22.32;nan
53514;BME280;39768;54.148;12.174;2023-06-22T08:01:43;101964.38;;;21.70;nan
53514;BME280;39768;54.148;12.174;2023-06-22T08:05:45;101970.22;;;21.92;nan
53514;BME280;39768;54.148;12.174;2023-06-22T08:09:48;101969.13;;;22.11;nan
53514;BME280;39768;54.148;12.174;2023-06-22T08:13:50;101972.44;;;22.16;nan
53514;BME280;39768;54.148;12.174;2023-06-22T08:17:52;101969.91;;;21.98;nan
53514;BME280;39768;54.148;12.174;2023-06-22T08:21:54;101972.41;;;22.01;nan
53514;BME280;39768;54.148;12.174;2023-06-22T08:25:55;101973.19;;;22.18;nan
53514;BME280;39768;54.148;12.174;2023-06-22T08:29:58;101974.66;;;21.95;nan
53514;BME280;39768;54.148;12.174;2023-06-22T08:34:00;101975.63;;;21.50;nan
53514;BME280;39768;54.148;12.174;2023-06-22T08:38:02;101976.63;;;21.77;nan
53514;BME280;39768;54.148;12.174;2023-06-22T08:42:04;101973.88;;;22.07;nan
53514;BME280;39768;54.148;12.174;2023-06-22T08:46:06;101973.41;;;22.00;nan
53514;BME280;39768;54.148;12.174;2023-06-22T08:50:09;101969.50;;;22.04;nan
53514;BME280;39768;54.148;12.174;2023-06-22T08:54:11;101964.44;;;21.54;nan
53514;BME280;39768;54.148;12.174;2023-06-22T08:58:12;101971.63;;;21.41;nan
53514;BME280;39768;54.148;12.174;2023-06-22T09:02:14;101981.63;;;21.85;nan
53514;BME280;39768;54.148;12.174;2023-06-22T09:06:15;101984.78;;;22.21;nan
53514;BME280;39768;54.148;12.174;2023-06-22T09:10:18;101974.56;;;22.25;nan
53514;BME280;39768;54.148;12.174;2023-06-22T09:14:20;101973.50;;;21.99;nan
53514;BME280;39768;54.148;12.174;2023-06-22T09:18:21;101986.53;;;22.92;nan
53514;BME280;39768;54.148;12.174;2023-06-22T09:22:23;101972.59;;;23.23;nan
53514;BME280;39768;54.148;12.174;2023-06-22T09:26:24;101962.19;;;22.89;nan
53514;BME280;39768;54.148;12.174;2023-06-22T09:30:26;101966.81;;;23.01;nan
53514;BME280;39768;54.148;12.174;2023-06-22T09:34:28;101963.59;;;22.67;nan
53514;BME280;39768;54.148;12.174;2023-06-22T09:38:29;101963.00;;;22.77;nan
53514;BME280;39768;54.148;12.174;2023-06-22T09:58:37;101946.84;;;20.37;nan
53514;BME280;39768;54.148;12.174;2023-06-22T10:02:40;101952.34;;;20.20;nan
53514;BME280;39768;54.148;12.174;2023-06-22T10:06:42;101961.38;;;20.20;nan
53514;BME280;39768;54.148;12.174;2023-06-22T10:10:44;101946.06;;;20.82;nan
53514;BME280;39768;54.148;12.174;2023-06-22T10:14:45;101947.00;;;21.43;nan
53514;BME280;39768;54.148;12.174;2023-06-22T10:18:47;101939.78;;;21.86;nan
53514;BME280;39768;54.148;12.174;2023-06-22T10:22:49;101945.28;;;22.00;nan
53514;BME280;39768;54.148;12.174;2023-06-22T10:26:50;101937.19;;;21.98;nan
53514;BME280;39768;54.148;12.174;2023-06-22T10:30:52;101933.41;;;21.27;nan
53514;BME280;39768;54.148;12.174;2023-06-22T10:34:54;101927.00;;;21.72;nan
53514;BME280;39768;54.148;12.174;2023-06-22T10:38:58;101932.97;;;22.07;nan
53514;BME280;39768;54.148;12.174;2023-06-22T10:43:00;101927.50;;;22.35;nan
53514;BME280;39768;54.148;12.174;2023-06-22T10:47:02;101917.66;;;22.33;nan
53514;BME280;39768;54.148;12.174;2023-06-22T10:51:03;101918.09;;;22.13;nan
53514;BME280;39768;54.148;12.174;2023-06-22T10:55:05;101930.16;;;22.23;nan
53514;BME280;39768;54.148;12.174;2023-06-22T10:59:07;101923.34;;;22.71;nan
53514;BME280;39768;54.148;12.174;2023-06-22T11:03:09;101912.53;;;22.96;nan
53514;BME280;39768;54.148;12.174;2023-06-22T11:07:13;101913.31;;;22.71;nan
53514;BME280;39768;54.148;12.174;2023-06-22T11:11:15;101907.19;;;23.07;nan
53514;BME280;39768;54.148;12.174;2023-06-22T11:15:19;101910.66;;;23.24;nan
53514;BME280;39768;54.148;12.174;2023-06-22T11:19:20;101905.72;;;22.62;nan
53514;BME280;39768;54.148;12.174;2023-06-22T11:23:22;101911.28;;;23.15;nan
53514;BME280;39768;54.148;12.174;2023-06-22T11:27:24;101908.81;;;23.24;nan
53514;BME280;39768;54.148;12.174;2023-06-22T11:31:25;101896.44;;;22.38;nan
53514;BME280;39768;54.148;12.174;2023-06-22T11:35:27;101903.34;;;23.24;nan
53514;BME280;39768;54.148;12.174;2023-06-22T11:39:29;101897.97;;;22.56;nan
53514;BME280;39768;54.148;12.174;2023-06-22T11:43:39;101897.22;;;22.94;nan
53514;BME280;39768;54.148;12.174;2023-06-22T11:47:41;101884.00;;;23.27;nan
53514;BME280;39768;54.148;12.174;2023-06-22T11:51:42;101888.59;;;22.60;nan
53514;BME280;39768;54.148;12.174;2023-06-22T11:55:44;101895.16;;;22.58;nan
53514;BME280;39768;54.148;12.174;2023-06-22T11:59:46;101899.97;;;22.94;nan
53514;BME280;39768;54.148;12.174;2023-06-22T12:03:47;101894.94;;;22.88;nan
53514;BME280;39768;54.148;12.174;2023-06-22T12:07:50;101886.09;;;22.57;nan
53514;BME280;39768;54.148;12.174;2023-06-22T12:11:51;101882.31;;;22.31;nan
53514;BME280;39768;54.148;12.174;2023-06-22T12:15:53;101878.03;;;22.68;nan
53514;BME280;39768;54.148;12.174;2023-06-22T12:19:54;101882.00;;;22.36;nan
53514;BME280;39768;54.148;12.174;2023-06-22T12:23:56;101870.84;;;22.67;nan
53514;BME280;39768;54.148;12.174;2023-06-22T12:27:58;101869.50;;;22.87;nan
53514;BME280;39768;54.148;12.174;2023-06-22T12:31:59;101867.75;;;23.64;nan
53514;BME280;39768;54.148;12.174;2023-06-22T12:36:01;101857.38;;;23.43;nan
53514;BME280;39768;54.148;12.174;2023-06-22T12:40:03;101864.00;;;23.65;nan
53514;BME280;39768;54.148;12.174;2023-06-22T12:44:05;101861.19;;;23.28;nan
53514;BME280;39768;54.148;12.174;2023-06-22T12:48:07;101864.25;;;23.74;nan
53514;BME280;39768;54.148;12.174;2023-06-22T12:52:09;101859.66;;;23.37;nan
53514;BME280;39768;54.148;12.174;2023-06-22T12:56:14;101855.06;;;23.37;nan
53514;BME280;39768;54.148;12.174;2023-06-22T13:00:16;101865.88;;;23.77;nan
53514;BME280;39768;54.148;12.174;2023-06-22T13:04:17;101863.25;;;23.37;nan
53514;BME280;39768;54.148;12.174;2023-06-22T13:08:20;101851.66;;;23.72;nan
53514;BME280;39768;54.148;12.174;2023-06-22T13:12:22;101844.78;;;23.28;nan
53514;BME280;39768;54.148;12.174;2023-06-22T13:16:24;101843.34;;;22.70;nan
53514;BME280;39768;54.148;12.174;2023-06-22T13:20:26;101845.84;;;23.13;nan
53514;BME280;39768;54.148;12.174;2023-06-22T13:24:27;101830.91;;;23.82;nan
53514;BME280;39768;54.148;12.174;2023-06-22T13:28:29;101824.16;;;24.11;nan
53514;BME280;39768;54.148;12.174;2023-06-22T13:32:32;101823.94;;;24.15;nan
53514;BME280;39768;54.148;12.174;2023-06-22T13:36:33;101808.00;;;23.34;nan
53514;BME280;39768;54.148;12.174;2023-06-22T13:40:36;101809.91;;;23.70;nan
53514;BME280;39768;54.148;12.174;2023-06-22T13:44:39;101797.03;;;23.21;nan
53514;BME280;39768;54.148;12.174;2023-06-22T13:48:41;101810.16;;;23.54;nan
53514;BME280;39768;54.148;12.174;2023-06-22T13:52:42;101799.13;;;23.43;nan
53514;BME280;39768;54.148;12.174;2023-06-22T13:56:44;101807.31;;;23.56;nan
53514;BME280;39768;54.148;12.174;2023-06-22T14:00:45;101805.97;;;23.74;nan
53514;BME280;39768;54.148;12.174;2023-06-22T14:04:47;101798.22;;;23.93;nan
53514;BME280;39768;54.148;12.174;2023-06-22T14:08:48;101796.91;;;24.46;nan
53514;BME280;39768;54.148;12.174;2023-06-22T14:12:52;101797.25;;;24.66;nan
53514;BME280;39768;54.148;12.174;2023-06-22T14:17:14;101795.06;;;24.10;nan
53514;BME280;39768;54.148;12.174;2023-06-22T14:21:16;101792.03;;;24.02;nan
53514;BME280;39768;54.148;12.174;2023-06-22T14:25:18;101787.28;;;23.93;nan
53514;BME280;39768;54.148;12.174;2023-06-22T14:29:20;101781.66;;;24.07;nan
53514;BME280;39768;54.148;12.174;2023-06-22T14:33:22;101779.72;;;23.84;nan
53514;BME280;39768;54.148;12.174;2023-06-22T14:37:23;101771.16;;;23.39;nan
53514;BME280;39768;54.148;12.174;2023-06-22T14:41:25;101771.88;;;23.67;nan
53514;BME280;39768;54.148;12.174;2023-06-22T14:45:27;101773.28;;;24.45;nan
53514;BME280;39768;54.148;12.174;2023-06-22T14:49:28;101768.91;;;24.19;nan
53514;BME280;39768;54.148;12.174;2023-06-22T14:53:30;101761.97;;;24.26;nan
53514;BME280;39768;54.148;12.174;2023-06-22T14:57:31;101739.38;;;24.11;nan
53514;BME280;39768;54.148;12.174;2023-06-22T15:01:33;101744.59;;;24.51;nan
53514;BME280;39768;54.148;12.174;2023-06-22T15:05:35;101750.63;;;24.78;nan
53514;BME280;39768;54.148;12.174;2023-06-22T15:09:36;101746.69;;;24.83;nan
53514;BME280;39768;54.148;12.174;2023-06-22T15:13:42;101735.56;;;24.73;nan
53514;BME280;39768;54.148;12.174;2023-06-22T15:17:44;101724.13;;;24.68;nan
53514;BME280;39768;54.148;12.174;2023-06-22T15:21:45;101713.22;;;24.55;nan
53514;BME280;39768;54.148;12.174;2023-06-22T15:25:47;101702.16;;;24.57;nan
53514;BME280;39768;54.148;12.174;2023-06-22T15:29:49;101707.13;;;23.93;nan
53514;BME280;39768;54.148;12.174;2023-06-22T15:33:50;101696.81;;;24.20;nan
53514;BME280;39768;54.148;12.174;2023-06-22T15:37:52;101684.63;;;24.48;nan
53514;BME280;39768;54.148;12.174;2023-06-22T15:41:53;101691.44;;;25.00;nan
53514;BME280;39768;54.148;12.174;2023-06-22T15:45:55;101680.00;;;25.28;nan
53514;BME280;39768;54.148;12.174;2023-06-22T15:49:57;101679.41;;;25.25;nan
53514;BME280;39768;54.148;12.174;2023-06-22T15:53:58;101667.78;;;24.99;nan
53514;BME280;39768;54.148;12.174;2023-06-22T15:58:00;101664.78;;;24.91;nan
53514;BME280;39768;54.148;12.174;2023-06-22T16:02:01;101674.66;;;25.15;nan
53514;BME280;39768;54.148;12.174;2023-06-22T16:06:03;101673.41;;;25.31;nan
53514;BME280;39768;54.148;12.174;2023-06-22T16:10:06;101679.22;;;25.48;nan
53514;BME280;39768;54.148;12.174;2023-06-22T16:14:08;101677.47;;;24.80;nan
53514;BME280;39768;54.148;12.174;2023-06-22T16:18:11;101650.59;;;24.86;nan
53514;BME280;39768;54.148;12.174;2023-06-22T16:22:12;101640.38;;;24.65;nan
53514;BME280;39768;54.148;12.174;2023-06-22T16:26:14;101641.25;;;24.31;nan
53514;BME280;39768;54.148;12.174;2023-06-22T16:30:39;101639.97;;;24.24;nan
53514;BME280;39768;54.148;12.174;2023-06-22T16:34:42;101636.47;;;24.10;nan
53514;BME280;39768;54.148;12.174;2023-06-22T16:38:44;101631.50;;;24.16;nan
53514;BME280;39768;54.148;12.174;2023-06-22T16:42:46;101619.00;;;23.53;nan
53514;BME280;39768;54.148;12.174;2023-06-22T16:46:49;101604.94;;;23.70;nan
53514;BME280;39768;54.148;12.174;2023-06-22T16:50:51;101604.41;;;23.41;nan
53514;BME280;39768;54.148;12.174;2023-06-22T16:54:53;101607.03;;;25.38;nan
53514;BME280;39768;54.148;12.174;2023-06-22T16:59:01;101601.19;;;27.30;nan
53514;BME280;39768;54.148;12.174;2023-06-22T17:03:08;101606.63;;;27.99;nan
53514;BME280;39768;54.148;12.174;2023-06-22T17:07:18;101606.28;;;27.04;nan
53514;BME280;39768;54.148;12.174;2023-06-22T17:11:20;101587.00;;;24.93;nan
53514;BME280;39768;54.148;12.174;2023-06-22T17:15:22;101575.13;;;23.91;nan
53514;BME280;39768;54.148;12.174;2023-06-22T17:19:25;101584.56;;;25.44;nan
53514;BME280;39768;54.148;12.174;2023-06-22T17:23:27;101570.03;;;25.33;nan
53514;BME280;39768;54.148;12.174;2023-06-22T17:27:29;101580.56;;;24.26;nan
53514;BME280;39768;54.148;12.174;2023-06-22T17:31:37;101558.38;;;23.71;nan
53514;BME280;39768;54.148;12.174;2023-06-22T17:35:46;101541.19;;;22.98;nan
53514;BME280;39768;54.148;12.174;2023-06-22T17:39:52;101536.78;;;22.59;nan
53514;BME280;39768;54.148;12.174;2023-06-22T17:43:57;101542.44;;;22.18;nan
53514;BME280;39768;54.148;12.174;2023-06-22T17:47:58;101551.19;;;21.83;nan
53514;BME280;39768;54.148;12.174;2023-06-22T17:52:00;101529.81;;;21.77;nan
53514;BME280;39768;54.148;12.174;2023-06-22T17:56:02;101530.47;;;21.68;nan
53514;BME280;39768;54.148;12.174;2023-06-22T18:00:04;101546.22;;;21.63;nan
53514;BME280;39768;54.148;12.174;2023-06-22T18:04:15;101549.75;;;21.38;nan
53514;BME280;39768;54.148;12.174;2023-06-22T18:08:22;101535.81;;;21.43;nan
53514;BME280;39768;54.148;12.174;2023-06-22T18:12:26;101538.44;;;21.71;nan
53514;BME280;39768;54.148;12.174;2023-06-22T18:16:33;101541.38;;;20.57;nan
53514;BME280;39768;54.148;12.174;2023-06-22T18:20:36;101548.00;;;19.95;nan
53514;BME280;39768;54.148;12.174;2023-06-22T18:24:40;101539.22;;;19.76;nan
53514;BME280;39768;54.148;12.174;2023-06-22T18:28:44;101545.53;;;19.76;nan
53514;BME280;39768;54.148;12.174;2023-06-22T18:32:46;101540.84;;;19.78;nan
53514;BME280;39768;54.148;12.174;2023-06-22T18:36:55;101536.63;;;19.88;nan
53514;BME280;39768;54.148;12.174;2023-06-22T18:40:59;101537.31;;;19.92;nan
53514;BME280;39768;54.148;12.174;2023-06-22T19:09:40;101521.69;;;17.55;nan
53514;BME280;39768;54.148;12.174;2023-06-22T19:13:46;101529.06;;;18.20;nan
53514;BME280;39768;54.148;12.174;2023-06-22T19:17:49;101533.66;;;18.36;nan
53514;BME280;39768;54.148;12.174;2023-06-22T19:21:58;101536.47;;;18.50;nan
53514;BME280;39768;54.148;12.174;2023-06-22T19:26:06;101525.53;;;18.36;nan
53514;BME280;39768;54.148;12.174;2023-06-22T19:30:09;101515.03;;;18.63;nan
53514;BME280;39768;54.148;12.174;2023-06-22T19:34:11;101506.53;;;18.53;nan
53514;BME280;39768;54.148;12.174;2023-06-22T19:38:17;101508.81;;;18.28;nan
53514;BME280;39768;54.148;12.174;2023-06-22T19:42:19;101499.22;;;18.38;nan
53514;BME280;39768;54.148;12.174;2023-06-22T19:46:31;101496.06;;;18.30;nan
53514;BME280;39768;54.148;12.174;2023-06-22T19:50:33;101500.44;;;18.65;nan
53514;BME280;39768;54.148;12.174;2023-06-22T19:54:38;101495.72;;;18.36;nan
53514;BME280;39768;54.148;12.174;2023-06-22T19:58:41;101494.13;;;18.32;nan
53514;BME280;39768;54.148;12.174;2023-06-22T20:02:44;101498.00;;;18.28;nan
53514;BME280;39768;54.148;12.174;2023-06-22T20:07:20;101488.75;;;18.47;nan
53514;BME280;39768;54.148;12.174;2023-06-22T20:11:24;101498.81;;;18.12;nan
53514;BME280;39768;54.148;12.174;2023-06-22T20:15:26;101496.84;;;18.32;nan
53514;BME280;39768;54.148;12.174;2023-06-22T20:19:36;101493.16;;;18.66;nan
53514;BME280;39768;54.148;12.174;2023-06-22T20:23:42;101487.25;;;18.59;nan
53514;BME280;39768;54.148;12.174;2023-06-22T20:27:44;101486.88;;;18.32;nan
53514;BME280;39768;54.148;12.174;2023-06-22T20:31:45;101490.25;;;18.20;nan
53514;BME280;39768;54.148;12.174;2023-06-22T20:35:47;101486.22;;;18.44;nan
53514;BME280;39768;54.148;12.174;2023-06-22T20:39:50;101479.09;;;17.93;nan
53514;BME280;39768;54.148;12.174;2023-06-22T20:43:53;101493.72;;;18.06;nan
53514;BME280;39768;54.148;12.174;2023-06-22T20:47:57;101481.13;;;18.38;nan
53514;BME280;39768;54.148;12.174;2023-06-22T20:51:59;101484.75;;;18.21;nan
53514;BME280;39768;54.148;12.174;2023-06-22T20:56:07;101475.34;;;17.96;nan
53514;BME280;39768;54.148;12.174;2023-06-22T21:00:09;101459.41;;;17.21;nan
53514;BME280;39768;54.148;12.174;2023-06-22T21:04:11;101459.00;;;17.11;nan
53514;BME280;39768;54.148;12.174;2023-06-22T21:08:13;101465.00;;;17.35;nan
53514;BME280;39768;54.148;12.174;2023-06-22T21:12:14;101452.78;;;17.09;nan
53514;BME280;39768;54.148;12.174;2023-06-22T21:16:16;101448.50;;;16.67;nan
53514;BME280;39768;54.148;12.174;2023-06-22T21:20:18;101439.81;;;16.97;nan
53514;BME280;39768;54.148;12.174;2023-06-22T21:24:19;101436.19;;;17.68;nan
53514;BME280;39768;54.148;12.174;2023-06-22T21:28:21;101438.97;;;17.67;nan
53514;BME280;39768;54.148;12.174;2023-06-22T21:32:23;101435.22;;;17.17;nan
53514;BME280;39768;54.148;12.174;2023-06-22T21:36:25;101434.09;;;16.86;nan
53514;BME280;39768;54.148;12.174;2023-06-22T21:40:26;101438.31;;;16.91;nan
53514;BME280;39768;54.148;12.174;2023-06-22T21:44:28;101443.00;;;16.88;nan
53514;BME280;39768;54.148;12.174;2023-06-22T21:48:30;101440.16;;;16.91;nan
53514;BME280;39768;54.148;12.174;2023-06-22T21:52:31;101455.44;;;17.10;nan
53514;BME280;39768;54.148;12.174;2023-06-22T21:56:33;101452.06;;;16.87;nan
53514;BME280;39768;54.148;12.174;2023-06-22T22:00:34;101459.75;;;16.96;nan
53514;BME280;39768;54.148;12.174;2023-06-22T22:04:36;101463.00;;;17.38;nan
53514;BME280;39768;54.148;12.174;2023-06-22T22:08:38;101462.22;;;17.36;nan